sensor_id;sensor_type;location;lat;lon;timestamp;pressure;altitude;pressure_sealevel;temperature;humidity
49451;BME280;35336;48.400;10.886;2023-03-14T00:00:13;94780.25;;;9.08;93.17
49451;BME280;35336;48.400;10.886;2023-03-14T00:00:29;94786.50;;;9.13;93.23
49451;BME280;35336;48.400;10.886;2023-03-14T00:00:44;94766.34;;;9.05;93.08
49451;BME280;35336;48.400;10.886;2023-03-14T00:00:59;94792.41;;;9.15;93.22
49451;BME280;35336;48.400;10.886;2023-03-14T00:01:17;94781.75;;;9.15;93.55
49451;BME280;35336;48.400;10.886;2023-03-14T00:01:33;94774.09;;;9.07;93.26
49451;BME280;35336;48.400;10.886;2023-03-14T00:01:48;94788.34;;;9.13;93.42
49451;BME280;35336;48.400;10.886;2023-03-14T00:02:04;94751.31;;;8.99;93.29
49451;BME280;35336;48.400;10.886;2023-03-14T00:02:19;94785.44;;;9.14;93.17
49451;BME280;35336;48.400;10.886;2023-03-14T00:02:34;94773.22;;;9.13;93.67
49451;BME280;35336;48.400;10.886;2023-03-14T00:02:53;94773.66;;;9.10;93.66
49451;BME280;35336;48.400;10.886;2023-03-14T00:03:08;94777.72;;;9.13;93.57
49451;BME280;35336;48.400;10.886;2023-03-14T00:03:24;94778.31;;;9.15;93.30
49451;BME280;35336;48.400;10.886;2023-03-14T00:03:39;94771.59;;;9.12;93.18
49451;BME280;35336;48.400;10.886;2023-03-14T00:03:54;94777.94;;;9.11;92.71
49451;BME280;35336;48.400;10.886;2023-03-14T00:04:10;94759.63;;;9.03;92.82
49451;BME280;35336;48.400;10.886;2023-03-14T00:04:25;94737.97;;;8.87;92.56
49451;BME280;35336;48.400;10.886;2023-03-14T00:04:40;94778.97;;;9.10;92.98
49451;BME280;35336;48.400;10.886;2023-03-14T00:04:56;94763.94;;;9.04;92.70
49451;BME280;35336;48.400;10.886;2023-03-14T00:05:11;94747.25;;;8.97;92.43
49451;BME280;35336;48.400;10.886;2023-03-14T00:05:27;94753.72;;;9.01;92.74
49451;BME280;35336;48.400;10.886;2023-03-14T00:05:42;94772.16;;;9.14;92.65
49451;BME280;35336;48.400;10.886;2023-03-14T00:06:02;94760.00;;;9.06;92.60
49451;BME280;35336;48.400;10.886;2023-03-14T00:06:18;94758.97;;;9.08;92.14
49451;BME280;35336;48.400;10.886;2023-03-14T00:06:34;94771.59;;;9.12;92.14
49451;BME280;35336;48.400;10.886;2023-03-14T00:06:50;94774.63;;;9.16;92.29
49451;BME280;35336;48.400;10.886;2023-03-14T00:07:05;94761.28;;;9.04;92.50
49451;BME280;35336;48.400;10.886;2023-03-14T00:07:20;94761.28;;;9.04;92.53
49451;BME280;35336;48.400;10.886;2023-03-14T00:07:38;94780.97;;;9.15;92.19
49451;BME280;35336;48.400;10.886;2023-03-14T00:07:53;94776.97;;;9.05;91.93
49451;BME280;35336;48.400;10.886;2023-03-14T00:08:09;94779.41;;;9.07;92.48
49451;BME280;35336;48.400;10.886;2023-03-14T00:08:24;94784.88;;;9.12;92.83
49451;BME280;35336;48.400;10.886;2023-03-14T00:08:40;94749.06;;;8.84;92.59
49451;BME280;35336;48.400;10.886;2023-03-14T00:08:56;94786.94;;;9.10;92.74
49451;BME280;35336;48.400;10.886;2023-03-14T00:09:12;94783.56;;;9.03;92.71
49451;BME280;35336;48.400;10.886;2023-03-14T00:09:27;94781.59;;;8.98;92.60
49451;BME280;35336;48.400;10.886;2023-03-14T00:09:42;94796.19;;;9.08;92.24
49451;BME280;35336;48.400;10.886;2023-03-14T00:09:58;94778.13;;;8.98;92.08
49451;BME280;35336;48.400;10.886;2023-03-14T00:10:13;94794.19;;;9.03;92.02
49451;BME280;35336;48.400;10.886;2023-03-14T00:10:29;94797.47;;;9.05;92.31
49451;BME280;35336;48.400;10.886;2023-03-14T00:10:44;94779.59;;;8.94;92.28
49451;BME280;35336;48.400;10.886;2023-03-14T00:11:13;94792.88;;;8.94;91.98
49451;BME280;35336;48.400;10.886;2023-03-14T00:11:29;94790.22;;;8.94;92.31
49451;BME280;35336;48.400;10.886;2023-03-14T00:11:44;94803.22;;;9.02;92.37
49451;BME280;35336;48.400;10.886;2023-03-14T00:11:59;94792.22;;;8.98;92.21
49451;BME280;35336;48.400;10.886;2023-03-14T00:12:15;94784.47;;;8.97;92.19
49451;BME280;35336;48.400;10.886;2023-03-14T00:12:31;94794.44;;;9.01;92.51
49451;BME280;35336;48.400;10.886;2023-03-14T00:12:46;94787.72;;;8.99;92.55
49451;BME280;35336;48.400;10.886;2023-03-14T00:13:01;94786.09;;;8.98;92.93
49451;BME280;35336;48.400;10.886;2023-03-14T00:13:17;94799.09;;;9.06;92.94
49451;BME280;35336;48.400;10.886;2023-03-14T00:13:32;94803.13;;;9.09;92.52
49451;BME280;35336;48.400;10.886;2023-03-14T00:13:51;94807.97;;;9.12;92.70
49451;BME280;35336;48.400;10.886;2023-03-14T00:14:07;94800.69;;;9.07;92.25
49451;BME280;35336;48.400;10.886;2023-03-14T00:14:23;94809.63;;;9.13;92.18
49451;BME280;35336;48.400;10.886;2023-03-14T00:14:38;94783.81;;;9.01;91.96
49451;BME280;35336;48.400;10.886;2023-03-14T00:14:53;94807.19;;;9.11;92.26
49451;BME280;35336;48.400;10.886;2023-03-14T00:15:09;94780.84;;;8.91;91.97
49451;BME280;35336;48.400;10.886;2023-03-14T00:15:25;94806.16;;;9.12;92.07
49451;BME280;35336;48.400;10.886;2023-03-14T00:15:41;94813.31;;;9.12;92.50
49451;BME280;35336;48.400;10.886;2023-03-14T00:16:11;94812.28;;;9.13;92.19
49451;BME280;35336;48.400;10.886;2023-03-14T00:16:27;94803.50;;;9.12;92.15
49451;BME280;35336;48.400;10.886;2023-03-14T00:16:45;94811.16;;;9.20;92.23
49451;BME280;35336;48.400;10.886;2023-03-14T00:17:01;94810.09;;;9.21;92.31
49451;BME280;35336;48.400;10.886;2023-03-14T00:17:16;94812.75;;;9.21;91.83
49451;BME280;35336;48.400;10.886;2023-03-14T00:17:33;94814.19;;;9.24;92.08
49451;BME280;35336;48.400;10.886;2023-03-14T00:17:48;94804.06;;;9.14;91.66
49451;BME280;35336;48.400;10.886;2023-03-14T00:18:03;94808.34;;;9.15;91.76
49451;BME280;35336;48.400;10.886;2023-03-14T00:18:19;94812.56;;;9.23;92.28
49451;BME280;35336;48.400;10.886;2023-03-14T00:18:34;94816.00;;;9.24;92.11
49451;BME280;35336;48.400;10.886;2023-03-14T00:18:50;94774.44;;;8.99;91.99
49451;BME280;35336;48.400;10.886;2023-03-14T00:19:05;94796.91;;;9.15;92.58
49451;BME280;35336;48.400;10.886;2023-03-14T00:19:20;94796.91;;;9.15;92.65
49451;BME280;35336;48.400;10.886;2023-03-14T00:19:36;94800.97;;;9.17;92.72
49451;BME280;35336;48.400;10.886;2023-03-14T00:19:52;94804.66;;;9.16;93.10
49451;BME280;35336;48.400;10.886;2023-03-14T00:20:08;94820.06;;;9.26;93.39
49451;BME280;35336;48.400;10.886;2023-03-14T00:20:24;94819.03;;;9.27;93.07
49451;BME280;35336;48.400;10.886;2023-03-14T00:20:39;94792.88;;;9.12;93.54
49451;BME280;35336;48.400;10.886;2023-03-14T00:20:57;94822.53;;;9.28;93.22
49451;BME280;35336;48.400;10.886;2023-03-14T00:21:13;94816.38;;;9.27;92.68
49451;BME280;35336;48.400;10.886;2023-03-14T00:21:28;94806.28;;;9.17;92.53
49451;BME280;35336;48.400;10.886;2023-03-14T00:21:44;94816.47;;;9.20;92.20
49451;BME280;35336;48.400;10.886;2023-03-14T00:21:59;94825.38;;;9.26;92.16
49451;BME280;35336;48.400;10.886;2023-03-14T00:22:14;94822.16;;;9.24;91.60
49451;BME280;35336;48.400;10.886;2023-03-14T00:22:30;94816.00;;;9.24;91.85
49451;BME280;35336;48.400;10.886;2023-03-14T00:22:46;94807.31;;;9.16;92.08
49451;BME280;35336;48.400;10.886;2023-03-14T00:23:01;94807.91;;;9.18;91.83
49451;BME280;35336;48.400;10.886;2023-03-14T00:23:16;94822.59;;;9.21;91.94
49451;BME280;35336;48.400;10.886;2023-03-14T00:23:34;94824.66;;;9.19;91.94
49451;BME280;35336;48.400;10.886;2023-03-14T00:23:50;94810.66;;;9.12;92.04
49451;BME280;35336;48.400;10.886;2023-03-14T00:24:05;94804.53;;;9.11;91.82
49451;BME280;35336;48.400;10.886;2023-03-14T00:24:21;94815.06;;;9.18;92.08
49451;BME280;35336;48.400;10.886;2023-03-14T00:24:36;94820.53;;;9.23;92.24
49451;BME280;35336;48.400;10.886;2023-03-14T00:24:52;94769.56;;;8.96;92.46
49451;BME280;35336;48.400;10.886;2023-03-14T00:25:09;94812.75;;;9.21;92.22
49451;BME280;35336;48.400;10.886;2023-03-14T00:25:24;94807.09;;;9.18;92.16
49451;BME280;35336;48.400;10.886;2023-03-14T00:25:40;94811.06;;;9.27;91.94
49451;BME280;35336;48.400;10.886;2023-03-14T00:26:06;94789.97;;;9.14;92.01
49451;BME280;35336;48.400;10.886;2023-03-14T00:26:21;94811.28;;;9.26;91.83
49451;BME280;35336;48.400;10.886;2023-03-14T00:26:37;94802.94;;;9.22;91.61
49451;BME280;35336;48.400;10.886;2023-03-14T00:26:52;94790.56;;;9.16;91.77
49451;BME280;35336;48.400;10.886;2023-03-14T00:27:07;94797.63;;;9.22;92.04
49451;BME280;35336;48.400;10.886;2023-03-14T00:27:23;94806.56;;;9.28;92.13
49451;BME280;35336;48.400;10.886;2023-03-14T00:27:38;94788.69;;;9.16;91.93
49451;BME280;35336;48.400;10.886;2023-03-14T00:27:54;94808.41;;;9.27;91.76
49451;BME280;35336;48.400;10.886;2023-03-14T00:28:09;94808.41;;;9.27;91.93
49451;BME280;35336;48.400;10.886;2023-03-14T00:28:24;94800.34;;;9.34;91.70
49451;BME280;35336;48.400;10.886;2023-03-14T00:28:41;94802.16;;;9.33;91.81
49451;BME280;35336;48.400;10.886;2023-03-14T00:28:57;94802.41;;;9.32;91.66
49451;BME280;35336;48.400;10.886;2023-03-14T00:29:12;94793.47;;;9.26;91.68
49451;BME280;35336;48.400;10.886;2023-03-14T00:29:27;94793.72;;;9.25;91.67
49451;BME280;35336;48.400;10.886;2023-03-14T00:29:43;94800.78;;;9.31;91.51
49451;BME280;35336;48.400;10.886;2023-03-14T00:29:58;94787.34;;;9.26;91.50
49451;BME280;35336;48.400;10.886;2023-03-14T00:30:14;94787.34;;;9.26;90.80
49451;BME280;35336;48.400;10.886;2023-03-14T00:30:29;94803.59;;;9.36;91.29
49451;BME280;35336;48.400;10.886;2023-03-14T00:30:44;94796.66;;;9.35;91.25
49451;BME280;35336;48.400;10.886;2023-03-14T00:31:03;94793.03;;;9.29;90.99
49451;BME280;35336;48.400;10.886;2023-03-14T00:31:18;94785.28;;;9.28;90.93
49451;BME280;35336;48.400;10.886;2023-03-14T00:31:33;94785.84;;;9.30;91.00
49451;BME280;35336;48.400;10.886;2023-03-14T00:31:49;94796.50;;;9.30;90.81
49451;BME280;35336;48.400;10.886;2023-03-14T00:32:04;94799.88;;;9.37;90.72
49451;BME280;35336;48.400;10.886;2023-03-14T00:32:19;94800.69;;;9.37;90.90
49451;BME280;35336;48.400;10.886;2023-03-14T00:32:35;94768.69;;;9.14;90.76
49451;BME280;35336;48.400;10.886;2023-03-14T00:32:50;94800.34;;;9.34;90.83
49451;BME280;35336;48.400;10.886;2023-03-14T00:33:05;94799.50;;;9.33;90.83
49451;BME280;35336;48.400;10.886;2023-03-14T00:33:21;94793.84;;;9.30;90.82
49451;BME280;35336;48.400;10.886;2023-03-14T00:33:37;94783.31;;;9.23;90.38
49451;BME280;35336;48.400;10.886;2023-03-14T00:33:52;94796.50;;;9.30;90.67
49451;BME280;35336;48.400;10.886;2023-03-14T00:34:08;94798.00;;;9.26;90.48
49451;BME280;35336;48.400;10.886;2023-03-14T00:34:23;94795.56;;;9.24;90.40
49451;BME280;35336;48.400;10.886;2023-03-14T00:34:43;94783.66;;;9.27;90.13
49451;BME280;35336;48.400;10.886;2023-03-14T00:34:58;94795.25;;;9.32;90.09
49451;BME280;35336;48.400;10.886;2023-03-14T00:35:14;94801.59;;;9.31;90.15
49451;BME280;35336;48.400;10.886;2023-03-14T00:35:29;94792.59;;;9.32;90.28
49451;BME280;35336;48.400;10.886;2023-03-14T00:35:53;94794.44;;;9.32;89.74
49451;BME280;35336;48.400;10.886;2023-03-14T00:36:12;94799.16;;;9.30;89.87
49451;BME280;35336;48.400;10.886;2023-03-14T00:36:27;94797.56;;;9.29;89.85
49451;BME280;35336;48.400;10.886;2023-03-14T00:36:44;94780.50;;;9.18;90.24
49451;BME280;35336;48.400;10.886;2023-03-14T00:36:59;94798.66;;;9.21;90.32
49451;BME280;35336;48.400;10.886;2023-03-14T00:37:15;94800.88;;;9.24;90.24
49451;BME280;35336;48.400;10.886;2023-03-14T00:37:30;94788.38;;;9.25;90.16
49451;BME280;35336;48.400;10.886;2023-03-14T00:37:45;94813.72;;;9.27;90.20
49451;BME280;35336;48.400;10.886;2023-03-14T00:38:01;94779.69;;;9.17;90.05
49451;BME280;35336;48.400;10.886;2023-03-14T00:38:16;94781.56;;;9.17;90.04
49451;BME280;35336;48.400;10.886;2023-03-14T00:38:32;94795.94;;;9.28;90.18
49451;BME280;35336;48.400;10.886;2023-03-14T00:38:50;94799.16;;;9.30;89.78
49451;BME280;35336;48.400;10.886;2023-03-14T00:39:05;94797.63;;;9.22;89.92
49451;BME280;35336;48.400;10.886;2023-03-14T00:39:21;94786.63;;;9.18;90.01
49451;BME280;35336;48.400;10.886;2023-03-14T00:39:36;94773.22;;;9.13;89.77
49451;BME280;35336;48.400;10.886;2023-03-14T00:39:52;94795.69;;;9.29;89.93
49451;BME280;35336;48.400;10.886;2023-03-14T00:40:08;94773.78;;;9.15;89.87
49451;BME280;35336;48.400;10.886;2023-03-14T00:40:23;94770.75;;;9.12;89.28
49451;BME280;35336;48.400;10.886;2023-03-14T00:40:39;94802.03;;;9.28;89.46
49451;BME280;35336;48.400;10.886;2023-03-14T00:40:54;94799.63;;;9.27;89.71
49451;BME280;35336;48.400;10.886;2023-03-14T00:41:12;94765.19;;;9.01;89.63
49451;BME280;35336;48.400;10.886;2023-03-14T00:41:28;94798.44;;;9.22;89.67
49451;BME280;35336;48.400;10.886;2023-03-14T00:41:43;94792.69;;;9.26;89.83
49451;BME280;35336;48.400;10.886;2023-03-14T00:41:58;94775.03;;;9.13;89.79
49451;BME280;35336;48.400;10.886;2023-03-14T00:42:14;94754.31;;;9.03;89.61
49451;BME280;35336;48.400;10.886;2023-03-14T00:42:29;94762.91;;;9.05;89.85
49451;BME280;35336;48.400;10.886;2023-03-14T00:42:44;94796.38;;;9.25;89.90
49451;BME280;35336;48.400;10.886;2023-03-14T00:43:00;94793.00;;;9.17;89.44
49451;BME280;35336;48.400;10.886;2023-03-14T00:43:15;94799.25;;;9.23;89.67
49451;BME280;35336;48.400;10.886;2023-03-14T00:43:30;94792.41;;;9.15;89.66
49451;BME280;35336;48.400;10.886;2023-03-14T00:43:46;94814.38;;;9.22;89.18
49451;BME280;35336;48.400;10.886;2023-03-14T00:44:01;94792.31;;;9.22;89.30
49451;BME280;35336;48.400;10.886;2023-03-14T00:44:16;94800.53;;;9.20;89.42
49451;BME280;35336;48.400;10.886;2023-03-14T00:44:32;94798.19;;;9.12;89.50
49451;BME280;35336;48.400;10.886;2023-03-14T00:44:47;94792.25;;;9.10;89.32
49451;BME280;35336;48.400;10.886;2023-03-14T00:45:03;94802.91;;;9.10;89.59
49451;BME280;35336;48.400;10.886;2023-03-14T00:45:18;94788.09;;;9.02;89.69
49451;BME280;35336;48.400;10.886;2023-03-14T00:45:33;94783.28;;;8.93;89.68
49451;BME280;35336;48.400;10.886;2023-03-14T00:45:50;94798.25;;;9.05;89.93
49451;BME280;35336;48.400;10.886;2023-03-14T00:46:06;94785.28;;;8.97;90.16
49451;BME280;35336;48.400;10.886;2023-03-14T00:46:21;94810.88;;;9.10;89.88
49451;BME280;35336;48.400;10.886;2023-03-14T00:46:37;94812.50;;;9.11;90.05
49451;BME280;35336;48.400;10.886;2023-03-14T00:46:52;94807.84;;;9.06;90.08
49451;BME280;35336;48.400;10.886;2023-03-14T00:47:08;94777.97;;;8.93;89.92
49451;BME280;35336;48.400;10.886;2023-03-14T00:47:23;94817.72;;;9.18;89.89
49451;BME280;35336;48.400;10.886;2023-03-14T00:47:38;94814.56;;;9.09;89.50
49451;BME280;35336;48.400;10.886;2023-03-14T00:47:54;94801.75;;;9.06;89.37
49451;BME280;35336;48.400;10.886;2023-03-14T00:48:09;94798.63;;;9.09;89.42
49451;BME280;35336;48.400;10.886;2023-03-14T00:48:24;94820.72;;;9.10;89.69
49451;BME280;35336;48.400;10.886;2023-03-14T00:48:40;94802.78;;;9.05;89.59
49451;BME280;35336;48.400;10.886;2023-03-14T00:48:55;94804.75;;;9.10;89.51
49451;BME280;35336;48.400;10.886;2023-03-14T00:49:10;94817.94;;;9.16;89.14
49451;BME280;35336;48.400;10.886;2023-03-14T00:49:26;94817.47;;;9.08;89.08
49451;BME280;35336;48.400;10.886;2023-03-14T00:49:41;94819.28;;;9.07;89.32
49451;BME280;35336;48.400;10.886;2023-03-14T00:49:57;94828.00;;;9.14;89.14
49451;BME280;35336;48.400;10.886;2023-03-14T00:50:12;94812.56;;;9.04;89.35
49451;BME280;35336;48.400;10.886;2023-03-14T00:50:27;94818.63;;;9.12;89.56
49451;BME280;35336;48.400;10.886;2023-03-14T00:50:43;94806.81;;;9.08;89.52
49451;BME280;35336;48.400;10.886;2023-03-14T00:50:58;94824.31;;;9.15;89.81
49451;BME280;35336;48.400;10.886;2023-03-14T00:51:14;94793.13;;;8.92;89.66
49451;BME280;35336;48.400;10.886;2023-03-14T00:51:29;94823.75;;;9.13;89.59
49451;BME280;35336;48.400;10.886;2023-03-14T00:51:45;94804.41;;;9.06;89.79
49451;BME280;35336;48.400;10.886;2023-03-14T00:52:00;94821.50;;;9.10;89.67
49451;BME280;35336;48.400;10.886;2023-03-14T00:52:15;94815.09;;;8.99;89.74
49451;BME280;35336;48.400;10.886;2023-03-14T00:52:31;94827.88;;;9.09;89.69
49451;BME280;35336;48.400;10.886;2023-03-14T00:52:46;94830.53;;;9.09;89.92
49451;BME280;35336;48.400;10.886;2023-03-14T00:53:02;94807.38;;;8.98;89.90
49451;BME280;35336;48.400;10.886;2023-03-14T00:53:17;94815.03;;;9.06;89.97
49451;BME280;35336;48.400;10.886;2023-03-14T00:53:36;94815.41;;;9.10;90.25
49451;BME280;35336;48.400;10.886;2023-03-14T00:53:52;94814.94;;;9.13;89.84
49451;BME280;35336;48.400;10.886;2023-03-14T00:54:07;94817.69;;;9.06;90.01
49451;BME280;35336;48.400;10.886;2023-03-14T00:54:23;94828.81;;;9.15;89.81
49451;BME280;35336;48.400;10.886;2023-03-14T00:54:38;94838.19;;;9.17;90.11
49451;BME280;35336;48.400;10.886;2023-03-14T00:54:53;94833.69;;;9.18;89.65
49451;BME280;35336;48.400;10.886;2023-03-14T00:55:09;94825.94;;;9.16;89.82
49451;BME280;35336;48.400;10.886;2023-03-14T00:55:25;94826.03;;;9.10;90.06
49451;BME280;35336;48.400;10.886;2023-03-14T00:55:41;94802.47;;;8.95;89.64
49451;BME280;35336;48.400;10.886;2023-03-14T00:56:02;94826.03;;;9.10;89.65
49451;BME280;35336;48.400;10.886;2023-03-14T00:56:18;94854.81;;;9.13;89.54
49451;BME280;35336;48.400;10.886;2023-03-14T00:56:33;94837.03;;;9.13;89.59
49451;BME280;35336;48.400;10.886;2023-03-14T00:56:49;94815.84;;;9.06;90.07
49451;BME280;35336;48.400;10.886;2023-03-14T00:57:04;94832.75;;;9.12;90.23
49451;BME280;35336;48.400;10.886;2023-03-14T00:57:19;94835.41;;;9.12;89.76
49451;BME280;35336;48.400;10.886;2023-03-14T00:57:36;94838.28;;;9.11;90.03
49451;BME280;35336;48.400;10.886;2023-03-14T00:57:51;94838.50;;;9.09;90.04
49451;BME280;35336;48.400;10.886;2023-03-14T00:58:06;94838.81;;;9.01;90.02
49451;BME280;35336;48.400;10.886;2023-03-14T00:58:22;94837.16;;;9.00;90.21
49451;BME280;35336;48.400;10.886;2023-03-14T00:58:37;94840.78;;;9.05;90.76
49451;BME280;35336;48.400;10.886;2023-03-14T00:58:54;94829.06;;;8.95;90.38
49451;BME280;35336;48.400;10.886;2023-03-14T00:59:10;94833.13;;;8.97;90.83
49451;BME280;35336;48.400;10.886;2023-03-14T00:59:25;94830.69;;;8.96;90.63
49451;BME280;35336;48.400;10.886;2023-03-14T00:59:41;94846.78;;;9.01;90.51
49451;BME280;35336;48.400;10.886;2023-03-14T00:59:56;94843.31;;;9.00;90.91
49451;BME280;35336;48.400;10.886;2023-03-14T01:00:12;94816.44;;;8.90;91.24
49451;BME280;35336;48.400;10.886;2023-03-14T01:00:28;94846.78;;;9.01;91.57
49451;BME280;35336;48.400;10.886;2023-03-14T01:00:43;94806.81;;;8.77;91.21
49451;BME280;35336;48.400;10.886;2023-03-14T01:00:59;94851.53;;;8.99;91.25
49451;BME280;35336;48.400;10.886;2023-03-14T01:01:18;94835.41;;;8.94;91.50
49451;BME280;35336;48.400;10.886;2023-03-14T01:01:33;94848.28;;;8.97;91.71
49451;BME280;35336;48.400;10.886;2023-03-14T01:01:49;94842.94;;;8.97;91.53
49451;BME280;35336;48.400;10.886;2023-03-14T01:02:04;94816.97;;;8.80;91.08
49451;BME280;35336;48.400;10.886;2023-03-14T01:02:19;94842.94;;;8.97;91.42
49451;BME280;35336;48.400;10.886;2023-03-14T01:02:34;94802.81;;;8.68;91.08
49451;BME280;35336;48.400;10.886;2023-03-14T01:02:50;94831.13;;;8.93;91.03
49451;BME280;35336;48.400;10.886;2023-03-14T01:03:06;94839.09;;;8.93;91.48
49451;BME280;35336;48.400;10.886;2023-03-14T01:03:21;94827.16;;;8.83;91.68
49451;BME280;35336;48.400;10.886;2023-03-14T01:03:37;94814.91;;;8.82;91.48
49451;BME280;35336;48.400;10.886;2023-03-14T01:03:54;94831.34;;;8.91;91.77
49451;BME280;35336;48.400;10.886;2023-03-14T01:04:10;94838.97;;;8.87;92.07
49451;BME280;35336;48.400;10.886;2023-03-14T01:04:26;94833.06;;;8.85;91.76
49451;BME280;35336;48.400;10.886;2023-03-14T01:04:41;94836.44;;;8.93;92.18
49451;BME280;35336;48.400;10.886;2023-03-14T01:04:57;94834.84;;;8.92;91.73
49451;BME280;35336;48.400;10.886;2023-03-14T01:05:12;94828.78;;;8.84;91.88
49451;BME280;35336;48.400;10.886;2023-03-14T01:05:28;94838.97;;;8.87;91.68
49451;BME280;35336;48.400;10.886;2023-03-14T01:05:43;94839.78;;;8.88;92.00
49451;BME280;35336;48.400;10.886;2023-03-14T01:06:13;94843.25;;;8.88;92.31
49451;BME280;35336;48.400;10.886;2023-03-14T01:06:30;94819.94;;;8.72;92.26
49451;BME280;35336;48.400;10.886;2023-03-14T01:06:45;94846.50;;;8.90;92.75
49451;BME280;35336;48.400;10.886;2023-03-14T01:07:01;94845.69;;;8.90;92.65
49451;BME280;35336;48.400;10.886;2023-03-14T01:07:16;94846.94;;;8.87;92.31
49451;BME280;35336;48.400;10.886;2023-03-14T01:07:31;94810.41;;;8.64;92.24
49451;BME280;35336;48.400;10.886;2023-03-14T01:07:47;94836.53;;;8.86;92.49
49451;BME280;35336;48.400;10.886;2023-03-14T01:08:03;94805.91;;;8.65;92.74
49451;BME280;35336;48.400;10.886;2023-03-14T01:08:18;94837.56;;;8.85;92.61
49451;BME280;35336;48.400;10.886;2023-03-14T01:08:33;94827.91;;;8.72;92.32
49451;BME280;35336;48.400;10.886;2023-03-14T01:08:50;94848.06;;;8.80;91.96
49451;BME280;35336;48.400;10.886;2023-03-14T01:09:05;94841.13;;;8.79;92.24
49451;BME280;35336;48.400;10.886;2023-03-14T01:09:21;94828.25;;;8.76;92.15
49451;BME280;35336;48.400;10.886;2023-03-14T01:09:36;94845.84;;;8.77;92.39
49451;BME280;35336;48.400;10.886;2023-03-14T01:09:52;94842.56;;;8.74;92.38
49451;BME280;35336;48.400;10.886;2023-03-14T01:10:08;94837.06;;;8.76;92.39
49451;BME280;35336;48.400;10.886;2023-03-14T01:10:24;94848.06;;;8.80;93.12
49451;BME280;35336;48.400;10.886;2023-03-14T01:10:40;94834.84;;;8.73;93.43
49451;BME280;35336;48.400;10.886;2023-03-14T01:10:55;94836.16;;;8.82;93.17
49451;BME280;35336;48.400;10.886;2023-03-14T01:11:14;94823.78;;;8.76;93.45
49451;BME280;35336;48.400;10.886;2023-03-14T01:11:32;94830.78;;;8.70;93.11
49451;BME280;35336;48.400;10.886;2023-03-14T01:11:48;94850.91;;;8.78;92.31
49451;BME280;35336;48.400;10.886;2023-03-14T01:12:03;94820.50;;;8.55;92.67
49451;BME280;35336;48.400;10.886;2023-03-14T01:12:19;94827.75;;;8.67;92.44
49451;BME280;35336;48.400;10.886;2023-03-14T01:12:34;94841.19;;;8.72;92.23
49451;BME280;35336;48.400;10.886;2023-03-14T01:12:50;94850.34;;;8.76;92.41
49451;BME280;35336;48.400;10.886;2023-03-14T01:13:05;94844.44;;;8.74;92.34
49451;BME280;35336;48.400;10.886;2023-03-14T01:13:20;94835.13;;;8.65;92.44
49451;BME280;35336;48.400;10.886;2023-03-14T01:13:36;94831.44;;;8.66;93.03
49451;BME280;35336;48.400;10.886;2023-03-14T01:13:52;94851.38;;;8.75;92.68
49451;BME280;35336;48.400;10.886;2023-03-14T01:14:07;94835.50;;;8.68;92.75
49451;BME280;35336;48.400;10.886;2023-03-14T01:14:22;94837.78;;;8.65;92.92
49451;BME280;35336;48.400;10.886;2023-03-14T01:14:38;94840.81;;;8.68;92.66
49451;BME280;35336;48.400;10.886;2023-03-14T01:14:53;94838.81;;;8.64;92.68
49451;BME280;35336;48.400;10.886;2023-03-14T01:15:09;94841.19;;;8.72;93.00
49451;BME280;35336;48.400;10.886;2023-03-14T01:15:24;94841.03;;;8.67;93.28
49451;BME280;35336;48.400;10.886;2023-03-14T01:15:39;94811.13;;;8.53;93.18
49451;BME280;35336;48.400;10.886;2023-03-14T01:15:55;94846.88;;;8.76;93.12
49451;BME280;35336;48.400;10.886;2023-03-14T01:16:11;94840.75;;;8.75;93.65
49451;BME280;35336;48.400;10.886;2023-03-14T01:16:29;94837.22;;;8.63;93.33
49451;BME280;35336;48.400;10.886;2023-03-14T01:16:45;94841.63;;;8.69;93.26
49451;BME280;35336;48.400;10.886;2023-03-14T01:17:00;94814.88;;;8.45;93.02
49451;BME280;35336;48.400;10.886;2023-03-14T01:17:15;94838.81;;;8.64;93.42
49451;BME280;35336;48.400;10.886;2023-03-14T01:17:31;94837.22;;;8.63;93.00
49451;BME280;35336;48.400;10.886;2023-03-14T01:17:46;94833.13;;;8.60;93.15
49451;BME280;35336;48.400;10.886;2023-03-14T01:18:03;94853.28;;;8.68;93.13
49451;BME280;35336;48.400;10.886;2023-03-14T01:18:18;94845.31;;;8.68;93.19
49451;BME280;35336;48.400;10.886;2023-03-14T01:18:34;94849.81;;;8.67;93.47
49451;BME280;35336;48.400;10.886;2023-03-14T01:18:50;94836.25;;;8.57;93.76
49451;BME280;35336;48.400;10.886;2023-03-14T01:19:06;94835.41;;;8.56;93.99
49451;BME280;35336;48.400;10.886;2023-03-14T01:19:21;94851.66;;;8.67;94.14
49451;BME280;35336;48.400;10.886;2023-03-14T01:19:36;94842.59;;;8.56;94.01
49451;BME280;35336;48.400;10.886;2023-03-14T01:19:51;94838.06;;;8.56;93.76
49451;BME280;35336;48.400;10.886;2023-03-14T01:20:09;94840.16;;;8.54;94.00
49451;BME280;35336;48.400;10.886;2023-03-14T01:20:25;94845.19;;;8.63;94.35
49451;BME280;35336;48.400;10.886;2023-03-14T01:20:40;94853.97;;;8.63;94.34
49451;BME280;35336;48.400;10.886;2023-03-14T01:20:56;94847.25;;;8.61;94.70
49451;BME280;35336;48.400;10.886;2023-03-14T01:21:30;94845.31;;;8.49;94.64
49451;BME280;35336;48.400;10.886;2023-03-14T01:21:45;94857.28;;;8.58;94.43
49451;BME280;35336;48.400;10.886;2023-03-14T01:22:01;94861.78;;;8.58;94.56
49451;BME280;35336;48.400;10.886;2023-03-14T01:22:16;94850.31;;;8.57;94.39
49451;BME280;35336;48.400;10.886;2023-03-14T01:22:31;94833.91;;;8.42;94.54
49451;BME280;35336;48.400;10.886;2023-03-14T01:22:47;94836.53;;;8.49;94.88
49451;BME280;35336;48.400;10.886;2023-03-14T01:23:02;94844.03;;;8.52;94.74
49451;BME280;35336;48.400;10.886;2023-03-14T01:23:17;94846.69;;;8.52;94.83
49451;BME280;35336;48.400;10.886;2023-03-14T01:23:33;94837.31;;;8.49;94.88
49451;BME280;35336;48.400;10.886;2023-03-14T01:23:48;94854.25;;;8.55;94.80
49451;BME280;35336;48.400;10.886;2023-03-14T01:24:05;94851.22;;;8.51;95.02
49451;BME280;35336;48.400;10.886;2023-03-14T01:24:21;94856.91;;;8.55;94.99
49451;BME280;35336;48.400;10.886;2023-03-14T01:24:37;94835.53;;;8.43;95.14